Flight Track Log - Related Links

Times and Time Zones

All times are in EDT time to prevent confusion due to time zone crossing. See the EJA941 flight status page for this flight to view local times or setup timezone preferences in your user account.

Time Position Orientation Groundspeed Altitude Reporting Facility
EDT Latitude Longitude Course Direction KTS MPH feet Rate Location/Type
Sat 10:30:38 AM 38.7333 -90.3167 136° Southeast 181 208 1,900  Level Gateway (St. Louis) TRACON
Sat 10:31:22 AM 38.7056 -90.2822 136° Southeast 236 272 3,700 2,377 Climbing Kansas City Center
Sat 10:32:24 AM 38.6569 -90.3253 215° Southwest 249 287 6,100 3,097 Climbing Kansas City Center
Sat 10:33:26 AM 38.6419 -90.4272 259° West 284 327 10,100 2,419 Climbing Kansas City Center
Sat 10:34:28 AM 38.6897 -90.5267 302° West 313 360 11,100 1,210 Climbing Kansas City Center
Sat 10:35:30 AM 38.7411 -90.6422 300° West 360 414 12,600 1,548 Climbing Kansas City Center
Sat 10:36:32 AM 38.7928 -90.7575 300° West 370 426 14,300 1,548 Climbing Kansas City Center
Sat 10:37:34 AM 38.8561 -90.8992 300° West 378 435 15,800 1,355 Climbing Kansas City Center
Sat 10:38:36 AM 38.9089 -91.0181 300° West 383 441 17,100 1,122 Climbing Kansas City Center
Sat 10:39:37 AM 38.9625 -91.1419 299° West 391 450 18,100 1,073 Climbing Kansas City Center
Sat 10:40:39 AM 38.9892 -91.2822 284° West 404 465 19,300 1,113 Climbing Kansas City Center
Sat 10:41:41 AM 39.0103 -91.4239 281° West 407 468 20,400 968 Climbing Kansas City Center
Sat 10:42:43 AM 39.0314 -91.5725 280° West 417 480 21,300 1,016 Climbing Kansas City Center
Sat 10:43:45 AM 39.0433 -91.7369 275° West 422 486 22,500 1,306 Climbing Kansas City Center
Sat 10:44:47 AM 39.0364 -91.8894 267° West 426 490 24,000 1,258 Climbing Kansas City Center
Sat 10:45:49 AM 39.0297 -92.0425 267° West 428 493 25,100 1,065 Climbing Kansas City Center
Sat 10:46:51 AM 39.0261 -92.2269 269° West 430 495 26,200 919 Climbing Kansas City Center
Sat 10:47:53 AM 39.0225 -92.3844 268° West 436 502 27,000 726 Climbing Kansas City Center
Sat 10:48:55 AM 39.0194 -92.5478 269° West 447 514 27,700 726 Climbing Kansas City Center
Sat 10:49:57 AM 39.0164 -92.7219 269° West 458 527 28,500 774 Climbing Kansas City Center
Sat 10:50:59 AM 39.0125 -92.8922 268° West 469 540 29,300 726 Climbing Kansas City Center
Sat 10:52:01 AM 39.0169 -93.0656 272° West 488 562 30,000 774 Climbing Kansas City Center
Sat 10:53:03 AM 39.0281 -93.2406 275° West 495 570 30,900 1,210 Climbing Kansas City Center
Sat 10:54:05 AM 39.0403 -93.4450 274° West 493 567 32,500 1,645 Climbing Kansas City Center
Sat 10:55:07 AM 39.0519 -93.6097 275° West 484 557 34,300 1,548 Climbing Kansas City Center
Sat 10:56:09 AM 39.0625 -93.7992 274° West 477 549 35,700 1,306 Climbing Kansas City Center
Sat 10:57:11 AM 39.0711 -93.9611 274° West 474 545 37,000 1,161 Climbing Kansas City Center
Sat 10:58:13 AM 39.0819 -94.1536 274° West 482 555 38,100 1,095 Climbing Kansas City Center
Sat 10:59:17 AM 39.0917 -94.3189 274° West 483 556 39,300 905 Climbing Kansas City Center
Sat 11:00:19 AM 39.1011 -94.5136 274° West 487 560 40,000 339 Climbing Kansas City Center
Sat 11:01:21 AM 39.1092 -94.6869 273° West 505 581 40,000  Level Kansas City Center
Sat 11:02:23 AM 39.1194 -94.8961 274° West 522 601 40,000  Level Kansas City Center
Sat 11:03:25 AM 39.0950 -95.0714 260° West 516 594 40,000  Level Kansas City Center
Sat 11:04:27 AM 39.0553 -95.2717 256° West 520 598 40,000  Level Kansas City Center
Sat 11:05:29 AM 39.0225 -95.4519 257° West 520 598 40,000  Level Kansas City Center
Sat 11:06:31 AM 38.9892 -95.6244 256° West 517 595 40,000  Level Kansas City Center
Sat 11:07:33 AM 38.9500 -95.8264 256° West 519 597 40,000  Level Kansas City Center
Sat 11:08:35 AM 38.9158 -95.9992 256° West 520 598 40,000  Level Kansas City Center
Sat 11:09:37 AM 38.8761 -96.2003 256° West 520 598 40,000  Level Kansas City Center
Sat 11:10:39 AM 38.8406 -96.3719 255° West 519 597 40,000  Level Kansas City Center
Sat 11:11:41 AM 38.8019 -96.5572 255° West 517 595 40,000  Level Kansas City Center
Sat 11:12:43 AM 38.7656 -96.7342 255° West 515 593 40,000  Level Kansas City Center
Sat 11:13:45 AM 38.7314 -96.9117 256° West 515 593 40,000  Level Kansas City Center
Sat 11:14:47 AM 38.6950 -97.0856 255° West 509 586 40,000  Level Kansas City Center
Sat 11:15:49 AM 38.6592 -97.2592 255° West 507 583 40,000  Level Kansas City Center
Sat 11:16:51 AM 38.6147 -97.4653 255° West 504 580 40,000  Level Kansas City Center
Sat 11:17:53 AM 38.5789 -97.6358 255° West 500 575 40,000  Level Kansas City Center
Sat 11:18:55 AM 38.5431 -97.8067 255° West 501 577 40,000  Level Kansas City Center
Sat 11:19:57 AM 38.5128 -97.9722 257° West 485 558 40,000  Level Kansas City Center
Sat 11:20:59 AM 38.5483 -98.1364 286° West 483 556 40,000  Level Kansas City Center
Sat 11:22:01 AM 38.6153 -98.3256 294° West 489 563 40,000  Level Kansas City Center
Sat 11:23:03 AM 38.6717 -98.4864 294° West 494 568 40,000  Level Kansas City Center
Sat 11:24:06 AM 38.7272 -98.6481 294° West 498 573 40,000  Level Kansas City Center
Sat 11:25:08 AM 38.7678 -98.8164 287° West 497 572 40,000  Level Kansas City Center
Sat 11:26:10 AM 38.8069 -98.9886 286° West 502 578 40,000  Level Kansas City Center
Sat 11:27:12 AM 38.8464 -99.1594 287° West 502 578 40,000  Level Kansas City Center
Sat 11:28:14 AM 38.8919 -99.3658 286° West 502 578 40,000  Level Kansas City Center
Sat 11:29:16 AM 38.9300 -99.5375 286° West 502 578 40,000  Level Kansas City Center
Sat 11:29:54 AM 38.9519 -99.6383 286° West 500 575 40,000  Level Denver Center
Sat 11:30:56 AM 38.9939 -99.8294 286° West 499 574 40,000  Level Denver Center
Sat 11:31:58 AM 39.0306 -99.9956 286° West 503 579 40,000  Level Denver Center
Sat 11:33:00 AM 39.0728 -100.1869 286° West 505 581 40,000  Level Denver Center
Sat 11:34:03 AM 39.1086 -100.3525 286° West 503 579 40,000  Level Denver Center
Sat 11:35:04 AM 39.1489 -100.5461 285° West 499 574 40,000  Level Denver Center
Sat 11:36:06 AM 39.1842 -100.7119 285° West 500 575 40,000  Level Denver Center
Sat 11:37:08 AM 39.2261 -100.9067 286° West 504 580 40,000  Level Denver Center
Sat 11:38:10 AM 39.2603 -101.0744 285° West 504 580 40,000  Level Denver Center
Sat 11:39:13 AM 39.3006 -101.2703 285° West 505 581 40,000  Level Denver Center
Sat 11:40:15 AM 39.3358 -101.4372 285° West 504 580 40,000  Level Denver Center
Sat 11:41:17 AM 39.3697 -101.6042 285° West 503 579 40,000  Level Denver Center
Sat 11:42:19 AM 39.4003 -101.8019 281° West 503 579 40,000  Level Denver Center
Sat 11:43:21 AM 39.4192 -101.9717 278° West 498 573 40,000  Level Denver Center
Sat 11:44:23 AM 39.4425 -102.1669 279° West 492 566 40,000  Level Denver Center
Sat 11:45:25 AM 39.4600 -102.3333 278° West 488 562 40,000  Level Denver Center
Sat 11:46:27 AM 39.4817 -102.5306 278° West 483 556 40,000  Level Denver Center
Sat 11:47:29 AM 39.5000 -102.6972 278° West 472 543 40,000  Level Denver Center
Sat 11:48:31 AM 39.5178 -102.8653 278° West 472 543 40,000  Level Denver Center
Sat 11:49:33 AM 39.5342 -103.0311 277° West 467 537 40,000  Level Denver Center
Sat 11:50:35 AM 39.5508 -103.1967 277° West 464 534 40,000  Level Denver Center
Sat 11:51:37 AM 39.5689 -103.3617 278° West 465 535 40,000  Level Denver Center
Sat 11:52:39 AM 39.5886 -103.5586 277° West 461 531 40,000  Level Denver Center
Sat 11:53:41 AM 39.6044 -103.7233 277° West 462 532 40,000  Level Denver Center
Sat 11:54:43 AM 39.6208 -103.8889 277° West 464 534 40,000  Level Denver Center
Sat 11:55:45 AM 39.6367 -104.0528 277° West 461 531 40,000  Level Denver Center
Sat 11:56:48 AM 39.6528 -104.2144 277° West 454 522 40,000  Level Denver Center
Sat 11:57:49 AM 39.6672 -104.3769 277° West 453 521 40,000  Level Denver Center
Sat 11:58:51 AM 39.6850 -104.5722 277° West 459 528 40,000  Level Denver Center
Sat 11:59:54 AM 39.6800 -104.7333 268° West 483 556 40,000  Level Denver Center
Sat 12:00:55 PM 39.6625 -104.8972 262° West 472 543 40,000  Level Denver Center
Sat 12:01:57 PM 39.6414 -105.0908 262° West 454 522 40,000  Level Denver Center
Sat 12:02:59 PM 39.6236 -105.2592 262° West 464 534 40,000  Level Denver Center
Sat 12:04:02 PM 39.6056 -105.4222 262° West 454 522 40,000  Level Denver Center
Sat 12:05:04 PM 39.5872 -105.5878 262° West 458 527 40,000  Level Denver Center
Sat 12:06:06 PM 39.5692 -105.7522 262° West 457 526 40,000  Level Denver Center
Sat 12:07:08 PM 39.5536 -105.9131 263° West 449 517 40,000  Level Denver Center
Sat 12:08:10 PM 39.5311 -106.1114 262° West 463 533 40,000  Level Denver Center
Sat 12:09:12 PM 39.5122 -106.2767 262° West 466 536 40,000  Level Denver Center
Sat 12:10:14 PM 39.4928 -106.4436 261° West 468 539 40,000  Level Denver Center
Sat 12:11:16 PM 39.4714 -106.6261 261° West 468 539 40,000  Level Denver Center
Sat 12:12:18 PM 39.4525 -106.7878 261° West 474 545 40,000  Level Denver Center
Sat 12:13:20 PM 39.4247 -106.9725 259° West 471 542 40,000  Level Denver Center
Sat 12:14:22 PM 39.3942 -107.1292 256° West 470 541 40,000  Level Denver Center
Sat 12:15:24 PM 39.3625 -107.3133 258° West 469 540 40,000  Level Denver Center
Sat 12:16:26 PM 39.3433 -107.4736 261° West 471 542 40,000  Level Denver Center
Sat 12:17:28 PM 39.3231 -107.6353 261° West 475 547 40,000  Level Denver Center
Sat 12:18:30 PM 39.2994 -107.8225 261° West 473 544 40,000  Level Denver Center
Sat 12:19:32 PM 39.2778 -107.9847 260° West 475 547 40,000  Level Denver Center
Sat 12:20:35 PM 39.2536 -108.1719 261° West 473 544 40,000  Level Denver Center
Sat 12:21:37 PM 39.2328 -108.3319 261° West 472 543 40,000  Level Denver Center
Sat 12:22:39 PM 39.2069 -108.5178 260° West 466 536 40,000  Level Denver Center
Sat 12:23:41 PM 39.1850 -108.6761 260° West 465 535 40,000  Level Denver Center
Sat 12:24:43 PM 39.1603 -108.8608 260° West 467 537 40,000  Level Denver Center
Sat 12:25:45 PM 39.1369 -109.0178 259° West 464 534 40,000  Level Denver Center
Sat 12:26:47 PM 39.1156 -109.1733 260° West 461 531 40,000  Level Denver Center
Sat 12:27:49 PM 39.0903 -109.3564 260° West 465 535 40,000  Level Denver Center
Sat 12:28:51 PM 39.0664 -109.5125 259° West 463 533 40,000  Level Denver Center
Sat 12:29:53 PM 39.0422 -109.6956 260° West 464 534 40,000  Level Denver Center
Sat 12:30:55 PM 39.0192 -109.8514 259° West 463 533 40,000  Level Denver Center
Sat 12:31:40 PM 39.0003 -109.9800 259° West 460 529 40,000  Level Salt Lake Center
Sat 12:32:42 PM 38.9778 -110.1331 259° West 456 525 40,000  Level Salt Lake Center
Sat 12:33:45 PM 38.9594 -110.3142 263° West 458 527 40,000  Level Salt Lake Center
Sat 12:34:47 PM 38.9586 -110.4706 270° West 458 527 40,000  Level Salt Lake Center
Sat 12:35:49 PM 38.9547 -110.6536 268° West 459 528 40,000  Level Salt Lake Center
Sat 12:36:51 PM 38.9508 -110.8100 268° West 458 527 40,000  Level Salt Lake Center
Sat 12:37:53 PM 38.9478 -110.9617 269° West 451 519 40,000  Level Salt Lake Center
Sat 12:38:55 PM 38.9425 -111.1564 268° West 454 522 40,000  Level Salt Lake Center
Sat 12:39:57 PM 38.9386 -111.3194 268° West 456 525 40,000  Level Salt Lake Center
Sat 12:40:59 PM 38.9342 -111.4819 268° West 457 526 40,000  Level Salt Lake Center
Sat 12:42:01 PM 38.9292 -111.6456 268° West 459 528 40,000  Level Salt Lake Center
Sat 12:43:03 PM 38.9247 -111.8078 268° West 458 527 40,000  Level Salt Lake Center
Sat 12:44:05 PM 38.9183 -112.0025 268° West 456 525 40,000  Level Salt Lake Center
Sat 12:45:07 PM 38.9125 -112.1661 267° West 460 529 40,000  Level Salt Lake Center
Sat 12:46:09 PM 38.9067 -112.3300 267° West 462 532 40,000  Level Salt Lake Center
Sat 12:47:11 PM 38.9006 -112.4961 267° West 466 536 40,000  Level Salt Lake Center
Sat 12:48:13 PM 38.8939 -112.6614 267° West 467 537 40,000  Level Salt Lake Center
Sat 12:49:15 PM 38.8886 -112.8289 268° West 471 542 40,000  Level Salt Lake Center
Sat 12:50:17 PM 38.8794 -113.0294 267° West 471 542 40,000  Level Salt Lake Center
Sat 12:51:19 PM 38.8725 -113.1942 267° West 468 539 40,000  Level Salt Lake Center
Sat 12:52:21 PM 38.8656 -113.3633 267° West 471 542 40,000  Level Salt Lake Center
Sat 12:53:23 PM 38.8581 -113.5272 267° West 465 535 40,000  Level Salt Lake Center
Sat 12:54:25 PM 38.8511 -113.6950 267° West 471 542 40,000  Level Salt Lake Center
Sat 12:55:27 PM 38.8417 -113.8944 267° West 470 541 40,000  Level Salt Lake Center
Sat 12:56:29 PM 38.8331 -114.0606 266° West 471 542 40,000  Level Salt Lake Center
Sat 12:57:31 PM 38.8244 -114.2286 266° West 474 545 40,000  Level Salt Lake Center
Sat 12:58:33 PM 38.8161 -114.3947 266° West 471 542 40,000  Level Salt Lake Center
Sat 12:59:36 PM 38.8069 -114.5611 266° West 470 541 40,000  Level Salt Lake Center
Sat 01:00:37 PM 38.7981 -114.7292 266° West 474 545 40,000  Level Salt Lake Center
Sat 01:01:39 PM 38.7858 -114.9319 266° West 476 548 40,000  Level Salt Lake Center
Sat 01:02:40 PM 38.7767 -115.1003 266° West 475 547 40,000  Level Salt Lake Center
Sat 01:03:42 PM 38.7644 -115.2686 265° West 475 547 40,000  Level Salt Lake Center
Sat 01:04:44 PM 38.7547 -115.4236 265° West 472 543 40,000  Level Salt Lake Center
Sat 01:05:46 PM 38.7422 -115.6208 265° West 465 535 40,000  Level Salt Lake Center
Sat 01:06:48 PM 38.7319 -115.7847 265° West 463 533 40,000  Level Salt Lake Center
Sat 01:07:50 PM 38.7211 -115.9469 265° West 458 527 40,000  Level Salt Lake Center
Sat 01:08:52 PM 38.7100 -116.1078 265° West 456 525 40,000  Level Salt Lake Center
Sat 01:09:54 PM 38.6992 -116.2706 265° West 459 528 40,000  Level Salt Lake Center
Sat 01:10:56 PM 38.6881 -116.4303 265° West 454 522 40,000  Level Salt Lake Center
Sat 01:11:57 PM 38.6767 -116.5906 265° West 454 522 40,000  Level Salt Lake Center
Sat 01:12:59 PM 38.6625 -116.7825 265° West 453 521 40,000  Level Salt Lake Center
Sat 01:14:01 PM 38.6514 -116.9422 265° West 453 521 40,000  Level Salt Lake Center
Sat 01:15:03 PM 38.6392 -117.1014 264° West 453 521 40,000  Level Salt Lake Center
Sat 01:16:05 PM 38.6267 -117.2625 264° West 457 526 40,000  Level Salt Lake Center
Sat 01:17:07 PM 38.6136 -117.4242 264° West 459 528 40,000 -726 Level Salt Lake Center
Sat 01:18:09 PM 38.5983 -117.6178 264° West 461 531 38,500 -2,129 Descending Salt Lake Center
Sat 01:19:11 PM 38.5853 -117.7800 264° West 459 528 35,600 -3,000 Descending Salt Lake Center
Sat 01:20:13 PM 38.5722 -117.9458 264° West 468 539 32,300 -2,585 Descending Salt Lake Center
Sat 01:21:14 PM 38.6000 -118.1125 282° West 492 566 30,300 -1,902 Descending Salt Lake Center
Sat 01:22:16 PM 38.6672 -118.2600 300° West 482 555 28,400 -2,177 Descending Salt Lake Center
Sat 01:23:18 PM 38.7342 -118.4094 300° West 483 556 25,800 -2,565 Descending Salt Lake Center
Sat 01:24:20 PM 38.8003 -118.5586 300° West 462 532 23,100 -2,463 Descending Salt Lake Center
Sat 01:25:32 PM 38.8761 -118.7283 300° West 456 525 20,300 -2,256 Descending Oakland Center
Sat 01:26:33 PM 38.9378 -118.8678 300° West 449 517 18,100 -2,000 Descending Oakland Center
Sat 01:27:35 PM 39.0047 -118.9944 304° West 429 494 16,200 -1,024 Descending Oakland Center
Sat 01:28:36 PM 39.0911 -119.1019 316° Northwest 428 493 16,000 -585 Descending Oakland Center
Sat 01:29:38 PM 39.1764 -119.2094 316° Northwest 427 491 15,000 -1,561 Descending Oakland Center
Sat 01:30:39 PM 39.2761 -119.3342 316° Northwest 417 480 12,800 -1,610 Descending Oakland Center
Sat 01:31:41 PM 39.3486 -119.4250 316° Northwest 381 438 11,700 -1,220 Descending Oakland Center
Sat 01:32:42 PM 39.4106 -119.5042 315° West 336 387 10,300 -1,220 Descending Oakland Center
Sat 01:33:44 PM 39.4658 -119.5728 316° Northwest 303 349 9,200 -780 Descending Oakland Center
Sat 01:34:45 PM 39.5100 -119.6281 316° Northwest 255 293 8,700 -713 Descending Oakland Center
Sat 01:35:25 PM 39.5333 -119.6667 308° West 202 232 8,000 -1,200 Descending Northern Cal TRACON
Sat 01:36:25 PM 39.5667 -119.7167 311° West 175 201 6,700 -1,050 Descending Northern Cal TRACON
Sat 01:37:25 PM 39.5667 -119.7667 270° West 160 184 5,900 -947 Descending Northern Cal TRACON
Sat 01:38:19 PM 39.5333 -119.7667 180° South 141 162 4,900 -1,111 Descending Northern Cal TRACON
Sat 01:40:00 PM 39.4991 -119.7681 237° Southwest  Level Estimated

Login

Don't have an account? Register now (free) for customized features, flight alerts, and more!